Time;durP1;ratioP1;P1;durP2;ratioP2;P2;SDS_P1;SDS_P2;PMS_P1;PMS_P2;Temp;Humidity;BMP_temperature;BMP_pressure;BME280_temperature;BME280_humidity;BME280_pressure;Samples;Min_cycle;Max_cycle;Signal;HPM_P1;HPM_P2
2023/08/01 00:00:17;;;;;;;;;;;;;;;;;;2072519;28;19979;-77
2023/08/01 00:01:38;;;;;;;;;;;;;;;;;;2071697;28;19971;-78
2023/08/01 00:02:58;;;;;;;;;;;;;;;;;;2072290;28;19939;-78
2023/08/01 00:04:19;;;;;;;;;;;;;;;;;;2073491;28;20377;-78
2023/08/01 00:05:44;;;;;;;;;;;;;;;;;;2078773;28;19916;-79
2023/08/01 00:07:05;;;;;;;;;;;;;;;;;;2073488;28;19921;-78
2023/08/01 00:08:26;;;;;;;;;;;;;;;;;;2080983;28;19916;-78
2023/08/01 00:09:46;;;;;;;;;;;;;;;;;;2075632;28;19951;-77
2023/08/01 00:11:09;;;;;;;;;;;;;;;;;;2085400;28;19935;-78
2023/08/01 00:12:30;;;;;;;;;;;;;;;;;;2076599;28;19921;-78
2023/08/01 00:13:50;;;;;;;;;;;;;;;;;;2071021;28;19941;-79
2023/08/01 00:15:11;;;;;;;;;;;;;;;;;;2081646;28;19924;-80
2023/08/01 00:16:32;;;;;;;;;;;;;;;;;;2088101;28;19912;-79
2023/08/01 00:17:53;;;;;;;;;;;;;;;;;;2082899;28;19917;-79
2023/08/01 00:19:13;;;;;;;;;;;;;;;;;;2080658;28;20348;-79
2023/08/01 00:20:34;;;;;;;;;;;;;;;;;;2076740;28;20015;-79
2023/08/01 00:21:55;;;;;;;;;;;;;;;;;;2088996;28;19913;-78
2023/08/01 00:23:15;;;;;;;;;;;;;;;;;;2087879;28;19917;-78
2023/08/01 00:24:36;;;;;;;;;;;;;;;;;;2090119;28;19950;-78
2023/08/01 00:25:57;;;;;;;;;;;;;;;;;;2073318;28;19917;-79
2023/08/01 00:27:17;;;;;;;;;;;;;;;;;;2080674;28;19977;-79
2023/08/01 00:28:38;;;;;;;;;;;;;;;;;;2073509;28;19910;-79
2023/08/01 00:29:59;;;;;;;;;;;;;;;;;;2089269;28;19908;-79
2023/08/01 00:31:19;;;;;;;;;;;;;;;;;;2084272;28;19978;-78
2023/08/01 00:32:40;;;;;;;;;;;;;;;;;;2087168;28;19966;-79
2023/08/01 00:34:01;;;;;;;;;;;;;;;;;;2077815;28;20334;-78
2023/08/01 00:35:22;;;;;;;;;;;;;;;;;;2077179;28;19912;-78
2023/08/01 00:36:42;;;;;;;;;;;;;;;;;;2082771;28;20549;-78
2023/08/01 00:38:03;;;;;;;;;;;;;;;;;;2089464;28;19943;-78
2023/08/01 00:39:24;;;;;;;;;;;;;;;;;;2077575;28;19913;-78
2023/08/01 00:40:44;;;;;;;;;;;;;;;;;;2079591;28;20344;-77
2023/08/01 00:42:05;;;;;;;;;;;;;;;;;;2085025;28;21211;-78
2023/08/01 00:43:26;;;;;;;;;;;;;;;;;;2086961;28;19917;-78
2023/08/01 00:44:48;;;;;;;;;;;;;;;;;;2084914;28;19925;-78
2023/08/01 00:46:09;;;;;;;;;;;;;;;;;;2078532;28;19913;-78
2023/08/01 00:47:30;;;;;;;;;;;;;;;;;;2083775;28;19913;-79
2023/08/01 00:48:50;;;;;;;;;;;;;;;;;;2081161;28;19920;-79
2023/08/01 00:50:11;;;;;;;;;;;;;;;;;;2080163;28;20666;-78
2023/08/01 00:51:32;;;;;;;;;;;;;;;;;;2078610;28;19913;-79
2023/08/01 00:52:52;;;;;;;;;;;;;;;;;;2078639;28;20035;-79
2023/08/01 00:54:13;;;;;;;;;;;;;;;;;;2071803;28;19928;-78
2023/08/01 00:55:34;;;;;;;;;;;;;;;;;;2077967;28;19914;-78
2023/08/01 00:56:55;;;;;;;;;;;;;;;;;;2076023;28;20283;-79
2023/08/01 00:58:15;;;;;;;;;;;;;;;;;;2075775;28;19921;-78
2023/08/01 00:59:36;;;;;;;;;;;;;;;;;;2075991;28;19914;-78
2023/08/01 01:00:57;;;;;;;;;;;;;;;;;;2075828;28;19917;-78
2023/08/01 01:02:18;;;;;;;;;;;;;;;;;;2079938;28;19944;-79
2023/08/01 01:03:38;;;;;;;;;;;;;;;;;;2076837;28;20400;-78
2023/08/01 01:04:59;;;;;;;;;;;;;;;;;;2080813;28;19944;-78
2023/08/01 01:06:21;;;;;;;;;;;;;;;;;;2078931;28;19959;-78
2023/08/01 01:07:42;;;;;;;;;;;;;;;;;;2075886;28;20372;-78
2023/08/01 01:09:04;;;;;;;;;;;;;;;;;;2078680;28;19967;-78
2023/08/01 01:10:25;;;;;;;;;;;;;;;;;;2079420;28;19917;-79
2023/08/01 01:11:46;;;;;;;;;;;;;;;;;;2081131;28;19917;-78
2023/08/01 01:13:06;;;;;;;;;;;;;;;;;;2078566;28;19913;-78
2023/08/01 01:14:27;;;;;;;;;;;;;;;;;;2080136;28;20415;-78
2023/08/01 01:15:48;;;;;;;;;;;;;;;;;;2077288;28;19910;-77
2023/08/01 01:17:09;;;;;;;;;;;;;;;;;;2074050;28;19920;-78
2023/08/01 01:18:29;;;;;;;;;;;;;;;;;;2074076;28;19917;-77
2023/08/01 01:19:50;;;;;;;;;;;;;;;;;;2079067;28;19913;-78
2023/08/01 01:21:11;;;;;;;;;;;;;;;;;;2075740;28;19967;-78
2023/08/01 01:22:31;;;;;;;;;;;;;;;;;;2075935;28;19951;-77
2023/08/01 01:23:52;;;;;;;;;;;;;;;;;;2076255;28;19968;-79
2023/08/01 01:25:13;;;;;;;;;;;;;;;;;;2076913;28;19921;-79
2023/08/01 01:26:34;;;;;;;;;;;;;;;;;;2073380;28;19917;-78
2023/08/01 01:27:54;;;;;;;;;;;;;;;;;;2077020;28;20430;-78
2023/08/01 01:29:15;;;;;;;;;;;;;;;;;;2078450;28;19917;-78
2023/08/01 01:30:36;;;;;;;;;;;;;;;;;;2080807;28;19909;-79
2023/08/01 01:31:56;;;;;;;;;;;;;;;;;;2086194;28;20337;-79
2023/08/01 01:33:17;;;;;;;;;;;;;;;;;;2077640;28;19913;-79
2023/08/01 01:34:38;;;;;;;;;;;;;;;;;;2078637;28;19929;-78
2023/08/01 01:35:58;;;;;;;;;;;;;;;;;;2076259;28;19963;-78
2023/08/01 01:37:19;;;;;;;;;;;;;;;;;;2076926;28;19909;-79
2023/08/01 01:38:40;;;;;;;;;;;;;;;;;;2070800;28;19914;-79
2023/08/01 01:40:00;;;;;;;;;;;;;;;;;;2074463;28;19913;-79
2023/08/01 01:41:22;;;;;;;;;;;;;;;;;;2076551;28;19916;-80
2023/08/01 01:42:43;;;;;;;;;;;;;;;;;;2080170;28;20414;-78
2023/08/01 01:44:03;;;;;;;;;;;;;;;;;;2074723;28;20364;-78
2023/08/01 01:45:24;;;;;;;;;;;;;;;;;;2077832;28;20019;-79
2023/08/01 01:46:45;;;;;;;;;;;;;;;;;;2071971;28;19990;-78
2023/08/01 01:48:05;;;;;;;;;;;;;;;;;;2079605;28;20343;-79
2023/08/01 01:49:26;;;;;;;;;;;;;;;;;;2077129;28;20391;-77
2023/08/01 01:50:47;;;;;;;;;;;;;;;;;;2072663;28;20307;-78
2023/08/01 01:52:08;;;;;;;;;;;;;;;;;;2073709;28;19913;-77
2023/08/01 01:53:28;;;;;;;;;;;;;;;;;;2077096;28;20315;-79
2023/08/01 01:54:49;;;;;;;;;;;;;;;;;;2077344;28;19928;-79
2023/08/01 01:56:10;;;;;;;;;;;;;;;;;;2079394;28;19920;-79
2023/08/01 01:57:31;;;;;;;;;;;;;;;;;;2078844;28;19928;-78
2023/08/01 01:58:51;;;;;;;;;;;;;;;;;;2075326;28;19940;-79
2023/08/01 02:00:12;;;;;;;;;;;;;;;;;;2074399;28;20292;-78
2023/08/01 02:01:33;;;;;;;;;;;;;;;;;;2074990;28;19944;-79
2023/08/01 02:02:53;;;;;;;;;;;;;;;;;;2073656;28;19921;-79
2023/08/01 02:04:14;;;;;;;;;;;;;;;;;;2075696;28;19964;-78
2023/08/01 02:05:35;;;;;;;;;;;;;;;;;;2076532;28;19956;-78
2023/08/01 02:06:55;;;;;;;;;;;;;;;;;;2074156;28;19963;-78
2023/08/01 02:08:16;;;;;;;;;;;;;;;;;;2075931;28;19921;-79
2023/08/01 02:09:37;;;;;;;;;;;;;;;;;;2080041;28;20277;-79
2023/08/01 02:10:58;;;;;;;;;;;;;;;;;;2077361;28;19924;-79
2023/08/01 02:12:18;;;;;;;;;;;;;;;;;;2079647;28;19909;-80
2023/08/01 02:13:39;;;;;;;;;;;;;;;;;;2075996;28;19976;-79
2023/08/01 02:15:00;;;;;;;;;;;;;;;;;;2073951;28;19924;-78
2023/08/01 02:16:20;;;;;;;;;;;;;;;;;;2077881;28;21650;-79
2023/08/01 02:17:41;;;;;;;;;;;;;;;;;;2078432;28;19971;-78
2023/08/01 02:19:02;;;;;;;;;;;;;;;;;;2083633;28;19960;-79
2023/08/01 02:20:23;;;;;;;;;;;;;;;;;;2074585;28;20025;-78
2023/08/01 02:21:43;;;;;;;;;;;;;;;;;;2081892;28;19909;-79
2023/08/01 02:23:04;;;;;;;;;;;;;;;;;;2074622;28;20665;-79
2023/08/01 02:24:25;;;;;;;;;;;;;;;;;;2079540;28;19921;-79
2023/08/01 02:25:45;;;;;;;;;;;;;;;;;;2076324;28;20348;-80
2023/08/01 02:27:06;;;;;;;;;;;;;;;;;;2073243;28;19921;-79
2023/08/01 02:28:27;;;;;;;;;;;;;;;;;;2079014;28;19968;-79
2023/08/01 02:29:49;;;;;;;;;;;;;;;;;;2076135;28;19917;-78
2023/08/01 02:31:10;;;;;;;;;;;;;;;;;;2072466;28;20396;-78
2023/08/01 02:32:31;;;;;;;;;;;;;;;;;;2070844;28;19925;-78
2023/08/01 02:33:51;;;;;;;;;;;;;;;;;;2083465;28;19927;-78
2023/08/01 02:35:12;;;;;;;;;;;;;;;;;;2078867;28;19950;-79
2023/08/01 02:36:33;;;;;;;;;;;;;;;;;;2084384;28;19978;-79
2023/08/01 02:37:54;;;;;;;;;;;;;;;;;;2078211;28;19913;-78
2023/08/01 02:39:14;;;;;;;;;;;;;;;;;;2078157;28;19913;-79
2023/08/01 02:40:35;;;;;;;;;;;;;;;;;;2084955;28;19971;-79
2023/08/01 02:41:56;;;;;;;;;;;;;;;;;;2077727;28;19926;-77
2023/08/01 02:43:17;;;;;;;;;;;;;;;;;;2082950;28;19920;-78
2023/08/01 02:44:37;;;;;;;;;;;;;;;;;;2078255;28;19917;-78
2023/08/01 02:46:00;;;;;;;;;;;;;;;;;;2075985;28;20300;-79
2023/08/01 02:47:21;;;;;;;;;;;;;;;;;;2079654;28;19913;-78
2023/08/01 02:48:42;;;;;;;;;;;;;;;;;;2081111;28;19967;-79
2023/08/01 02:50:02;;;;;;;;;;;;;;;;;;2085736;28;20624;-79
2023/08/01 02:51:23;;;;;;;;;;;;;;;;;;2082608;28;19917;-79
2023/08/01 02:52:44;;;;;;;;;;;;;;;;;;2076360;28;20377;-78
2023/08/01 02:54:05;;;;;;;;;;;;;;;;;;2081435;28;19914;-78
2023/08/01 02:55:25;;;;;;;;;;;;;;;;;;2077647;28;19952;-80
2023/08/01 02:56:46;;;;;;;;;;;;;;;;;;2080285;28;19948;-80
2023/08/01 02:58:07;;;;;;;;;;;;;;;;;;2080327;28;19917;-80
2023/08/01 02:59:27;;;;;;;;;;;;;;;;;;2079431;28;19979;-79
2023/08/01 03:00:48;;;;;;;;;;;;;;;;;;2079561;28;19913;-77
2023/08/01 03:02:09;;;;;;;;;;;;;;;;;;2075543;28;20007;-79
2023/08/01 03:03:30;;;;;;;;;;;;;;;;;;2078747;28;19921;-79
2023/08/01 03:04:50;;;;;;;;;;;;;;;;;;2079726;28;19913;-80
2023/08/01 03:06:12;;;;;;;;;;;;;;;;;;2077115;28;19921;-78
2023/08/01 03:07:33;;;;;;;;;;;;;;;;;;2074392;28;19913;-78
2023/08/01 03:08:53;;;;;;;;;;;;;;;;;;2076813;28;20051;-79
2023/08/01 03:10:14;;;;;;;;;;;;;;;;;;2079588;28;19917;-78
2023/08/01 03:11:35;;;;;;;;;;;;;;;;;;2072844;28;20404;-78
2023/08/01 03:12:56;;;;;;;;;;;;;;;;;;2074326;28;19975;-77
2023/08/01 03:14:16;;;;;;;;;;;;;;;;;;2075008;28;19950;-79
2023/08/01 03:15:37;;;;;;;;;;;;;;;;;;2075525;28;19980;-78
2023/08/01 03:16:58;;;;;;;;;;;;;;;;;;2074209;28;19944;-79
2023/08/01 03:18:18;;;;;;;;;;;;;;;;;;2076159;28;19917;-79
2023/08/01 03:19:39;;;;;;;;;;;;;;;;;;2074940;28;19972;-79
2023/08/01 03:21:00;;;;;;;;;;;;;;;;;;2072997;28;19921;-79
2023/08/01 03:22:21;;;;;;;;;;;;;;;;;;2075613;28;19921;-79
2023/08/01 03:23:42;;;;;;;;;;;;;;;;;;2074307;28;19925;-79
2023/08/01 03:25:07;;;;;;;;;;;;;;;;;;2074036;28;20288;-78
2023/08/01 03:26:28;;;;;;;;;;;;;;;;;;2079094;28;19921;-79
2023/08/01 03:27:49;;;;;;;;;;;;;;;;;;2079843;28;20343;-79
2023/08/01 03:29:09;;;;;;;;;;;;;;;;;;2078305;28;19920;-79
2023/08/01 03:30:30;;;;;;;;;;;;;;;;;;2085190;28;19918;-80
2023/08/01 03:31:51;;;;;;;;;;;;;;;;;;2076200;28;21322;-79
2023/08/01 03:33:11;;;;;;;;;;;;;;;;;;2085007;28;19923;-78
2023/08/01 03:34:32;;;;;;;;;;;;;;;;;;2077314;28;19913;-79
2023/08/01 03:35:53;;;;;;;;;;;;;;;;;;2085312;28;20346;-78
2023/08/01 03:37:14;;;;;;;;;;;;;;;;;;2081053;28;19913;-79
2023/08/01 03:38:34;;;;;;;;;;;;;;;;;;2080406;28;20265;-79
2023/08/01 03:39:55;;;;;;;;;;;;;;;;;;2080575;28;19996;-80
2023/08/01 03:41:16;;;;;;;;;;;;;;;;;;2080717;28;19917;-78
2023/08/01 03:42:36;;;;;;;;;;;;;;;;;;2081564;28;19919;-79
2023/08/01 03:43:57;;;;;;;;;;;;;;;;;;2080463;28;20061;-80
2023/08/01 03:45:18;;;;;;;;;;;;;;;;;;2077077;28;19917;-78
2023/08/01 03:46:38;;;;;;;;;;;;;;;;;;2081799;28;20367;-78
2023/08/01 03:47:59;;;;;;;;;;;;;;;;;;2076699;28;19913;-79
2023/08/01 03:49:20;;;;;;;;;;;;;;;;;;2080651;28;20511;-78
2023/08/01 03:50:41;;;;;;;;;;;;;;;;;;2074874;28;20036;-78
2023/08/01 03:52:01;;;;;;;;;;;;;;;;;;2078179;28;19921;-80
2023/08/01 03:53:22;;;;;;;;;;;;;;;;;;2080544;28;19917;-79
2023/08/01 03:54:43;;;;;;;;;;;;;;;;;;2079536;28;19917;-78
2023/08/01 03:56:03;;;;;;;;;;;;;;;;;;2076922;28;19979;-79
2023/08/01 03:57:24;;;;;;;;;;;;;;;;;;2078596;28;19913;-80
2023/08/01 03:58:45;;;;;;;;;;;;;;;;;;2076585;28;19913;-79
2023/08/01 04:00:05;;;;;;;;;;;;;;;;;;2080597;28;19979;-79
2023/08/01 04:01:26;;;;;;;;;;;;;;;;;;2077544;28;19921;-79
2023/08/01 04:02:47;;;;;;;;;;;;;;;;;;2074086;28;19968;-79
2023/08/01 04:04:08;;;;;;;;;;;;;;;;;;2073239;28;20369;-78
2023/08/01 04:05:28;;;;;;;;;;;;;;;;;;2075111;28;19921;-78
2023/08/01 04:06:49;;;;;;;;;;;;;;;;;;2077183;28;19944;-82
2023/08/01 04:08:10;;;;;;;;;;;;;;;;;;2079318;28;19913;-79
2023/08/01 04:09:30;;;;;;;;;;;;;;;;;;2075977;28;19921;-79
2023/08/01 04:10:51;;;;;;;;;;;;;;;;;;2079407;28;19917;-79
2023/08/01 04:12:12;;;;;;;;;;;;;;;;;;2076704;28;19991;-79
2023/08/01 04:13:32;;;;;;;;;;;;;;;;;;2074792;28;21136;-80
2023/08/01 04:14:53;;;;;;;;;;;;;;;;;;2078070;28;19964;-79
2023/08/01 04:16:14;;;;;;;;;;;;;;;;;;2074717;28;19925;-78
2023/08/01 04:17:35;;;;;;;;;;;;;;;;;;2077796;28;20038;-79
2023/08/01 04:18:56;;;;;;;;;;;;;;;;;;2077363;28;19913;-79
2023/08/01 04:20:16;;;;;;;;;;;;;;;;;;2079013;28;19972;-79
2023/08/01 04:21:37;;;;;;;;;;;;;;;;;;2078148;28;19917;-79
2023/08/01 04:22:58;;;;;;;;;;;;;;;;;;2077400;28;19955;-79
2023/08/01 04:24:18;;;;;;;;;;;;;;;;;;2079208;28;19925;-79
2023/08/01 04:25:39;;;;;;;;;;;;;;;;;;2078693;28;19925;-80
2023/08/01 04:27:00;;;;;;;;;;;;;;;;;;2083180;28;20403;-79
2023/08/01 04:28:20;;;;;;;;;;;;;;;;;;2079918;28;19955;-79
2023/08/01 04:29:41;;;;;;;;;;;;;;;;;;2077518;28;20313;-80
2023/08/01 04:31:02;;;;;;;;;;;;;;;;;;2079100;28;19917;-79
2023/08/01 04:32:22;;;;;;;;;;;;;;;;;;2076540;28;20309;-78
2023/08/01 04:33:44;;;;;;;;;;;;;;;;;;2077393;28;19963;-79
2023/08/01 04:35:05;;;;;;;;;;;;;;;;;;2077981;28;20066;-78
2023/08/01 04:36:26;;;;;;;;;;;;;;;;;;2078318;28;20029;-79
2023/08/01 04:37:46;;;;;;;;;;;;;;;;;;2076717;28;20283;-78
2023/08/01 04:39:07;;;;;;;;;;;;;;;;;;2076189;28;19913;-79
2023/08/01 04:40:28;;;;;;;;;;;;;;;;;;2077975;28;20268;-79
2023/08/01 04:41:49;;;;;;;;;;;;;;;;;;2075694;28;19979;-79
2023/08/01 04:43:10;;;;;;;;;;;;;;;;;;2075148;28;19913;-79
2023/08/01 04:44:31;;;;;;;;;;;;;;;;;;2079568;28;20319;-79
2023/08/01 04:45:51;;;;;;;;;;;;;;;;;;2077453;28;19921;-78
2023/08/01 04:47:12;;;;;;;;;;;;;;;;;;2076291;28;19913;-79
2023/08/01 04:48:33;;;;;;;;;;;;;;;;;;2077791;28;19959;-80
2023/08/01 04:49:53;;;;;;;;;;;;;;;;;;2078726;28;19991;-78
2023/08/01 04:51:14;;;;;;;;;;;;;;;;;;2077640;28;19959;-79
2023/08/01 04:52:35;;;;;;;;;;;;;;;;;;2080673;28;19913;-80
2023/08/01 04:53:55;;;;;;;;;;;;;;;;;;2078521;28;20022;-80
2023/08/01 04:55:16;;;;;;;;;;;;;;;;;;2079773;28;19964;-78
2023/08/01 04:56:37;;;;;;;;;;;;;;;;;;2081385;28;19944;-80
2023/08/01 04:57:58;;;;;;;;;;;;;;;;;;2078265;28;19917;-79
2023/08/01 04:59:18;;;;;;;;;;;;;;;;;;2075592;28;20380;-80
2023/08/01 05:00:39;;;;;;;;;;;;;;;;;;2076196;28;19925;-78
2023/08/01 05:02:00;;;;;;;;;;;;;;;;;;2082235;28;20426;-79
2023/08/01 05:03:20;;;;;;;;;;;;;;;;;;2075405;28;19921;-80
2023/08/01 05:04:41;;;;;;;;;;;;;;;;;;2080047;28;19967;-80
2023/08/01 05:06:02;;;;;;;;;;;;;;;;;;2081049;28;21102;-79
2023/08/01 05:07:22;;;;;;;;;;;;;;;;;;2082456;28;19919;-81
2023/08/01 05:08:43;;;;;;;;;;;;;;;;;;2079166;28;19913;-79
2023/08/01 05:10:04;;;;;;;;;;;;;;;;;;2078987;28;20269;-80
2023/08/01 05:11:24;;;;;;;;;;;;;;;;;;2076532;28;19910;-80
2023/08/01 05:12:45;;;;;;;;;;;;;;;;;;2074748;28;19910;-79
2023/08/01 05:14:06;;;;;;;;;;;;;;;;;;2079791;28;19928;-79
2023/08/01 05:15:26;;;;;;;;;;;;;;;;;;2076660;28;19925;-79
2023/08/01 05:16:47;;;;;;;;;;;;;;;;;;2078793;28;19917;-85
2023/08/01 05:18:08;;;;;;;;;;;;;;;;;;2079855;28;19917;-85
2023/08/01 05:19:29;;;;;;;;;;;;;;;;;;2078069;28;19920;-84
2023/08/01 05:20:52;;;;;;;;;;;;;;;;;;2077622;28;20287;-84
2023/08/01 05:22:13;;;;;;;;;;;;;;;;;;2075536;28;19909;-85
2023/08/01 05:23:34;;;;;;;;;;;;;;;;;;2079205;28;19913;-86
2023/08/01 05:24:55;;;;;;;;;;;;;;;;;;2080326;28;19913;-84
2023/08/01 05:26:15;;;;;;;;;;;;;;;;;;2077916;28;19979;-84
2023/08/01 05:27:36;;;;;;;;;;;;;;;;;;2072632;28;19952;-81
2023/08/01 05:28:57;;;;;;;;;;;;;;;;;;2075926;28;19921;-83
2023/08/01 05:30:17;;;;;;;;;;;;;;;;;;2085992;28;19942;-85
2023/08/01 05:31:38;;;;;;;;;;;;;;;;;;2079748;28;19910;-84
2023/08/01 05:32:59;;;;;;;;;;;;;;;;;;2081566;28;19913;-83
2023/08/01 05:34:19;;;;;;;;;;;;;;;;;;2078144;28;20316;-85
2023/08/01 05:35:40;;;;;;;;;;;;;;;;;;2078392;28;19920;-84
2023/08/01 05:37:01;;;;;;;;;;;;;;;;;;2077304;28;19917;-85
2023/08/01 05:38:22;;;;;;;;;;;;;;;;;;2081239;28;19983;-84
2023/08/01 05:39:42;;;;;;;;;;;;;;;;;;2078758;28;19967;-86
2023/08/01 05:41:03;;;;;;;;;;;;;;;;;;2079132;28;19913;-86
2023/08/01 05:42:24;;;;;;;;;;;;;;;;;;2080397;28;20392;-85
2023/08/01 05:43:44;;;;;;;;;;;;;;;;;;2073944;28;19913;-85
2023/08/01 05:45:05;;;;;;;;;;;;;;;;;;2074322;28;19925;-85
2023/08/01 05:46:26;;;;;;;;;;;;;;;;;;2077806;28;19925;-84
2023/08/01 05:47:47;;;;;;;;;;;;;;;;;;2078058;28;19959;-86
2023/08/01 05:49:07;;;;;;;;;;;;;;;;;;2078709;28;19936;-84
2023/08/01 05:50:28;;;;;;;;;;;;;;;;;;2078692;28;19917;-84
2023/08/01 05:51:49;;;;;;;;;;;;;;;;;;2076501;28;19932;-85
2023/08/01 05:53:09;;;;;;;;;;;;;;;;;;2080389;28;19987;-84
2023/08/01 05:54:30;;;;;;;;;;;;;;;;;;2079997;28;20308;-84
2023/08/01 05:55:51;;;;;;;;;;;;;;;;;;2078011;28;19913;-86
2023/08/01 05:57:12;;;;;;;;;;;;;;;;;;2080075;28;19917;-84
2023/08/01 05:58:32;;;;;;;;;;;;;;;;;;2078890;28;20334;-85
2023/08/01 05:59:53;;;;;;;;;;;;;;;;;;2079903;28;19964;-85
2023/08/01 06:01:14;;;;;;;;;;;;;;;;;;2081011;28;19967;-81
2023/08/01 06:02:34;;;;;;;;;;;;;;;;;;2081161;28;20295;-85
2023/08/01 06:03:55;;;;;;;;;;;;;;;;;;2080411;28;21293;-83
2023/08/01 06:05:16;;;;;;;;;;;;;;;;;;2081516;28;19914;-84
2023/08/01 06:06:36;;;;;;;;;;;;;;;;;;2078284;28;20319;-84
2023/08/01 06:07:57;;;;;;;;;;;;;;;;;;2079075;28;19913;-84
2023/08/01 06:09:18;;;;;;;;;;;;;;;;;;2081800;28;19921;-84
2023/08/01 06:10:39;;;;;;;;;;;;;;;;;;2079556;28;19913;-83
2023/08/01 06:11:59;;;;;;;;;;;;;;;;;;2080695;28;20296;-84
2023/08/01 06:13:20;;;;;;;;;;;;;;;;;;2078979;28;19914;-80
2023/08/01 06:14:41;;;;;;;;;;;;;;;;;;2079561;28;19913;-84
2023/08/01 06:16:01;;;;;;;;;;;;;;;;;;2078211;28;19928;-81
2023/08/01 06:17:22;;;;;;;;;;;;;;;;;;2078574;28;19921;-79
2023/08/01 06:18:43;;;;;;;;;;;;;;;;;;2086881;28;19917;-81
2023/08/01 06:20:04;;;;;;;;;;;;;;;;;;2078299;28;19913;-82
2023/08/01 06:21:25;;;;;;;;;;;;;;;;;;2077562;28;20383;-82
2023/08/01 06:22:45;;;;;;;;;;;;;;;;;;2080418;28;19928;-81
2023/08/01 06:24:08;;;;;;;;;;;;;;;;;;2079754;28;20399;-81
2023/08/01 06:25:29;;;;;;;;;;;;;;;;;;2078109;28;19944;-82
2023/08/01 06:26:49;;;;;;;;;;;;;;;;;;2079122;28;20404;-81
2023/08/01 06:28:10;;;;;;;;;;;;;;;;;;2080776;28;19921;-82
2023/08/01 06:29:31;;;;;;;;;;;;;;;;;;2080901;28;19921;-82
2023/08/01 06:30:51;;;;;;;;;;;;;;;;;;2079509;28;19995;-82
2023/08/01 06:32:12;;;;;;;;;;;;;;;;;;2080514;28;19997;-81
2023/08/01 06:33:33;;;;;;;;;;;;;;;;;;2078443;28;19971;-81
2023/08/01 06:34:54;;;;;;;;;;;;;;;;;;2077366;28;19980;-81
2023/08/01 06:36:16;;;;;;;;;;;;;;;;;;2079293;28;19929;-82
2023/08/01 06:37:37;;;;;;;;;;;;;;;;;;2079514;28;19944;-81
2023/08/01 06:38:57;;;;;;;;;;;;;;;;;;2080222;28;19913;-81
2023/08/01 06:40:18;;;;;;;;;;;;;;;;;;2084232;28;19964;-81
2023/08/01 06:41:39;;;;;;;;;;;;;;;;;;2079302;28;19913;-81
2023/08/01 06:42:59;;;;;;;;;;;;;;;;;;2088827;28;19916;-81
2023/08/01 06:44:20;;;;;;;;;;;;;;;;;;2081966;28;19913;-82
2023/08/01 06:45:41;;;;;;;;;;;;;;;;;;2075783;28;19914;-82
2023/08/01 06:47:02;;;;;;;;;;;;;;;;;;2082763;28;19921;-81
2023/08/01 06:48:22;;;;;;;;;;;;;;;;;;2079274;28;19925;-81
2023/08/01 06:49:43;;;;;;;;;;;;;;;;;;2080579;28;20291;-81
2023/08/01 06:51:04;;;;;;;;;;;;;;;;;;2077548;28;19913;-79
2023/08/01 06:52:25;;;;;;;;;;;;;;;;;;2080632;28;19921;-80
2023/08/01 06:53:46;;;;;;;;;;;;;;;;;;2080481;28;21423;-80
2023/08/01 06:55:06;;;;;;;;;;;;;;;;;;2078599;28;19936;-80
2023/08/01 06:56:27;;;;;;;;;;;;;;;;;;2078734;28;19928;-80
2023/08/01 06:57:48;;;;;;;;;;;;;;;;;;2072516;28;19917;-80
2023/08/01 06:59:09;;;;;;;;;;;;;;;;;;2087913;28;19913;-80
2023/08/01 07:00:30;;;;;;;;;;;;;;;;;;2077101;28;20396;-80
2023/08/01 07:01:51;;;;;;;;;;;;;;;;;;2079109;28;19924;-79
2023/08/01 07:03:11;;;;;;;;;;;;;;;;;;2082464;28;20368;-81
2023/08/01 07:04:32;;;;;;;;;;;;;;;;;;2083094;28;20308;-79
2023/08/01 07:05:53;;;;;;;;;;;;;;;;;;2077029;28;19913;-80
2023/08/01 07:07:13;;;;;;;;;;;;;;;;;;2078691;28;20568;-79
2023/08/01 07:08:34;;;;;;;;;;;;;;;;;;2081770;28;19980;-81
2023/08/01 07:09:55;;;;;;;;;;;;;;;;;;2075615;28;19921;-80
2023/08/01 07:11:15;;;;;;;;;;;;;;;;;;2079412;28;19920;-79
2023/08/01 07:12:36;;;;;;;;;;;;;;;;;;2077872;28;19963;-80
2023/08/01 07:13:57;;;;;;;;;;;;;;;;;;2081398;28;20280;-81
2023/08/01 07:15:18;;;;;;;;;;;;;;;;;;2079665;28;19914;-80
2023/08/01 07:16:38;;;;;;;;;;;;;;;;;;2081331;28;20265;-80
2023/08/01 07:17:59;;;;;;;;;;;;;;;;;;2076738;28;19913;-80
2023/08/01 07:19:20;;;;;;;;;;;;;;;;;;2071820;28;19929;-81
2023/08/01 07:20:40;;;;;;;;;;;;;;;;;;2086852;28;20349;-81
2023/08/01 07:22:01;;;;;;;;;;;;;;;;;;2086077;28;19909;-80
2023/08/01 07:23:22;;;;;;;;;;;;;;;;;;2074246;28;20381;-81
2023/08/01 07:24:42;;;;;;;;;;;;;;;;;;2078292;28;19964;-80
2023/08/01 07:26:03;;;;;;;;;;;;;;;;;;2076633;28;19932;-80
2023/08/01 07:27:24;;;;;;;;;;;;;;;;;;2078142;28;19928;-82
2023/08/01 07:28:45;;;;;;;;;;;;;;;;;;2075570;28;19913;-81
2023/08/01 07:30:06;;;;;;;;;;;;;;;;;;2078767;28;20264;-81
2023/08/01 07:31:26;;;;;;;;;;;;;;;;;;2079906;28;19992;-81
2023/08/01 07:32:47;;;;;;;;;;;;;;;;;;2077731;28;20357;-80
2023/08/01 07:34:08;;;;;;;;;;;;;;;;;;2076417;28;20354;-80
2023/08/01 07:35:29;;;;;;;;;;;;;;;;;;2083334;28;19909;-80
2023/08/01 07:36:49;;;;;;;;;;;;;;;;;;2073135;28;20388;-80
2023/08/01 07:38:10;;;;;;;;;;;;;;;;;;2088069;28;19913;-81
2023/08/01 07:39:31;;;;;;;;;;;;;;;;;;2082633;28;19913;-81
2023/08/01 07:40:52;;;;;;;;;;;;;;;;;;2081106;28;19920;-81
2023/08/01 07:42:12;;;;;;;;;;;;;;;;;;2073993;28;19909;-81
2023/08/01 07:43:33;;;;;;;;;;;;;;;;;;2079366;28;19917;-81
2023/08/01 07:44:54;;;;;;;;;;;;;;;;;;2074652;28;20292;-81
2023/08/01 07:46:14;;;;;;;;;;;;;;;;;;2077685;28;19910;-81
2023/08/01 07:47:35;;;;;;;;;;;;;;;;;;2071299;28;19925;-80
2023/08/01 07:48:56;;;;;;;;;;;;;;;;;;2078718;28;20292;-81
2023/08/01 07:50:16;;;;;;;;;;;;;;;;;;2073764;28;19921;-80
2023/08/01 07:51:37;;;;;;;;;;;;;;;;;;2077875;28;19937;-81
2023/08/01 07:52:58;;;;;;;;;;;;;;;;;;2079200;28;19913;-80
2023/08/01 07:54:19;;;;;;;;;;;;;;;;;;2073707;28;20351;-80
2023/08/01 07:55:39;;;;;;;;;;;;;;;;;;2070649;28;20336;-82
2023/08/01 07:57:00;;;;;;;;;;;;;;;;;;2085177;28;19913;-80
2023/08/01 07:58:21;;;;;;;;;;;;;;;;;;2081486;28;19909;-81
2023/08/01 07:59:42;;;;;;;;;;;;;;;;;;2074383;28;19909;-80
2023/08/01 08:01:02;;;;;;;;;;;;;;;;;;2085098;28;19912;-80
2023/08/01 08:02:23;;;;;;;;;;;;;;;;;;2077269;28;19913;-81
2023/08/01 08:03:44;;;;;;;;;;;;;;;;;;2074918;28;19917;-81
2023/08/01 08:05:05;;;;;;;;;;;;;;;;;;2087359;28;20010;-82
2023/08/01 08:06:25;;;;;;;;;;;;;;;;;;2075946;28;20032;-82
2023/08/01 08:07:46;;;;;;;;;;;;;;;;;;2089117;28;19916;-81
2023/08/01 08:09:07;;;;;;;;;;;;;;;;;;2076678;28;20339;-82
2023/08/01 08:10:27;;;;;;;;;;;;;;;;;;2080664;28;19921;-81
2023/08/01 08:11:48;;;;;;;;;;;;;;;;;;2080698;28;20218;-81
2023/08/01 08:13:09;;;;;;;;;;;;;;;;;;2080614;28;19943;-82
2023/08/01 08:14:30;;;;;;;;;;;;;;;;;;2080194;28;20360;-81
2023/08/01 08:15:50;;;;;;;;;;;;;;;;;;2077410;28;19967;-82
2023/08/01 08:17:11;;;;;;;;;;;;;;;;;;2080166;28;19913;-82
2023/08/01 08:18:32;;;;;;;;;;;;;;;;;;2079620;28;21188;-81
2023/08/01 08:19:53;;;;;;;;;;;;;;;;;;2069575;28;20392;-83
2023/08/01 08:21:13;;;;;;;;;;;;;;;;;;2078743;28;19921;-81
2023/08/01 08:22:34;;;;;;;;;;;;;;;;;;2080807;28;20004;-81
2023/08/01 08:23:55;;;;;;;;;;;;;;;;;;2081213;28;19913;-82
2023/08/01 08:25:15;;;;;;;;;;;;;;;;;;2087120;28;19913;-81
2023/08/01 08:26:37;;;;;;;;;;;;;;;;;;2073719;28;19914;-81
2023/08/01 08:27:58;;;;;;;;;;;;;;;;;;2072160;28;19918;-81
2023/08/01 08:29:18;;;;;;;;;;;;;;;;;;2077495;28;20439;-81
2023/08/01 08:30:39;;;;;;;;;;;;;;;;;;2074333;28;19921;-80
2023/08/01 08:32:00;;;;;;;;;;;;;;;;;;2074017;28;19909;-80
2023/08/01 08:33:23;;;;;;;;;;;;;;;;;;2073007;28;20314;-81
2023/08/01 08:34:44;;;;;;;;;;;;;;;;;;2076377;28;19916;-81
2023/08/01 08:36:04;;;;;;;;;;;;;;;;;;2077719;28;19931;-82
2023/08/01 08:37:25;;;;;;;;;;;;;;;;;;2081628;28;20288;-81
2023/08/01 08:38:46;;;;;;;;;;;;;;;;;;2079921;28;20304;-82
2023/08/01 08:40:07;;;;;;;;;;;;;;;;;;2080091;28;19917;-80
2023/08/01 08:41:27;;;;;;;;;;;;;;;;;;2084185;28;20380;-80
2023/08/01 08:42:48;;;;;;;;;;;;;;;;;;2088140;28;19909;-81
2023/08/01 08:44:09;;;;;;;;;;;;;;;;;;2074094;28;19924;-81
2023/08/01 08:45:29;;;;;;;;;;;;;;;;;;2078316;28;20368;-82
2023/08/01 08:46:50;;;;;;;;;;;;;;;;;;2077890;28;19913;-81
2023/08/01 08:48:11;;;;;;;;;;;;;;;;;;2079747;28;19917;-81
2023/08/01 08:49:32;;;;;;;;;;;;;;;;;;2082732;28;19913;-81
2023/08/01 08:50:52;;;;;;;;;;;;;;;;;;2079030;28;20363;-81
2023/08/01 08:52:13;;;;;;;;;;;;;;;;;;2086122;28;19908;-81
2023/08/01 08:53:34;;;;;;;;;;;;;;;;;;2081810;28;20383;-80
2023/08/01 08:54:54;;;;;;;;;;;;;;;;;;2080836;28;19909;-82
2023/08/01 08:56:15;;;;;;;;;;;;;;;;;;2079467;28;19909;-82
2023/08/01 08:57:36;;;;;;;;;;;;;;;;;;2078034;28;19923;-81
2023/08/01 08:58:56;;;;;;;;;;;;;;;;;;2087658;28;19982;-82
2023/08/01 09:00:17;;;;;;;;;;;;;;;;;;2081042;28;19913;-81
2023/08/01 09:01:38;;;;;;;;;;;;;;;;;;2079365;28;19909;-81
2023/08/01 09:02:59;;;;;;;;;;;;;;;;;;2080687;28;19910;-81
2023/08/01 09:04:19;;;;;;;;;;;;;;;;;;2076016;28;19941;-84
2023/08/01 09:05:40;;;;;;;;;;;;;;;;;;2080699;28;19928;-80
2023/08/01 09:07:01;;;;;;;;;;;;;;;;;;2081188;28;19909;-80
2023/08/01 09:08:21;;;;;;;;;;;;;;;;;;2081784;28;19945;-80
2023/08/01 09:09:42;;;;;;;;;;;;;;;;;;2080872;28;20384;-81
2023/08/01 09:11:03;;;;;;;;;;;;;;;;;;2076822;28;19914;-81